Time;durP1;ratioP1;P1;durP2;ratioP2;P2;SDS_P1;SDS_P2;PMS_P1;PMS_P2;Temp;Humidity;BMP_temperature;BMP_pressure;BME280_temperature;BME280_humidity;BME280_pressure;Samples;Min_cycle;Max_cycle;Signal;HPM_P1;HPM_P2
2021/10/28 00:13:08;;;;;;;97.65;27.00;;;;;;;;;;5007344;28;20847;-94
2021/10/28 00:15:37;;;;;;;99.50;27.58;;;;;;;;;;5010204;28;20206;-96
2021/10/28 00:18:12;;;;;;;99.40;28.98;;;;;;;;;;5011622;28;20233;-96
2021/10/28 00:20:39;;;;;;;103.53;30.55;;;;;;;;;;5012045;28;20212;-95
2021/10/28 00:23:06;;;;;;;98.82;27.08;;;;;;;;;;5011322;28;20205;-95
2021/10/28 00:25:35;;;;;;;102.50;28.55;;;;;;;;;;5005923;28;20204;-94
2021/10/28 00:28:02;;;;;;;92.63;25.77;;;;;;;;;;5007768;28;20224;-95
2021/10/28 00:30:29;;;;;;;99.43;26.27;;;;;;;;;;5011703;28;20210;-96
2021/10/28 00:32:57;;;;;;;106.15;26.83;;;;;;;;;;5014690;28;21002;-95
2021/10/28 00:35:24;;;;;;;101.35;27.52;;;;;;;;;;5016980;28;20229;-95
2021/10/28 00:37:51;;;;;;;94.47;25.95;;;;;;;;;;4990250;28;20198;-95
2021/10/28 00:40:18;;;;;;;92.35;22.38;;;;;;;;;;5009806;28;20714;-95
2021/10/28 00:42:48;;;;;;;91.35;23.35;;;;;;;;;;5007544;28;20202;-96
2021/10/28 00:45:15;;;;;;;86.00;22.70;;;;;;;;;;5009373;28;20205;-95
2021/10/28 00:47:42;;;;;;;94.03;26.02;;;;;;;;;;5006979;28;20193;-95
2021/10/28 00:50:09;;;;;;;101.18;27.30;;;;;;;;;;5008537;28;20281;-94
2021/10/28 00:52:36;;;;;;;108.45;30.35;;;;;;;;;;5002638;28;20251;-95
2021/10/28 00:55:03;;;;;;;96.20;24.00;;;;;;;;;;5008162;28;20774;-95
2021/10/28 00:57:31;;;;;;;93.28;24.73;;;;;;;;;;5005355;28;20200;-94
2021/10/28 01:00:01;;;;;;;96.13;26.17;;;;;;;;;;5005631;28;20215;-94
2021/10/28 01:02:27;;;;;;;98.18;26.98;;;;;;;;;;5004407;28;20222;-94
2021/10/28 01:04:54;;;;;;;105.40;28.40;;;;;;;;;;5005222;28;20218;-94
2021/10/28 01:07:20;;;;;;;104.05;27.40;;;;;;;;;;5004840;28;20222;-94
2021/10/28 01:09:47;;;;;;;99.93;23.35;;;;;;;;;;5006169;28;20208;-94
2021/10/28 01:12:14;;;;;;;93.25;25.15;;;;;;;;;;5004423;28;20231;-94
2021/10/28 01:14:41;;;;;;;93.93;24.55;;;;;;;;;;5005606;28;20210;-94
2021/10/28 01:17:10;;;;;;;92.53;24.20;;;;;;;;;;5004416;28;20720;-94
2021/10/28 01:19:37;;;;;;;93.32;25.33;;;;;;;;;;5005693;28;20207;-93
2021/10/28 01:22:05;;;;;;;99.25;26.20;;;;;;;;;;5006252;28;20209;-93
2021/10/28 01:24:32;;;;;;;100.63;25.55;;;;;;;;;;5007037;28;20206;-93
2021/10/28 01:27:02;;;;;;;91.82;24.20;;;;;;;;;;5005909;28;20275;-93
2021/10/28 01:29:29;;;;;;;95.72;25.23;;;;;;;;;;5007366;28;20249;-94
2021/10/28 01:31:55;;;;;;;98.93;27.38;;;;;;;;;;5005119;28;20243;-93
2021/10/28 01:34:22;;;;;;;101.53;27.73;;;;;;;;;;5007410;28;20271;-93
2021/10/28 01:36:49;;;;;;;98.57;28.30;;;;;;;;;;5003514;28;20234;-93
2021/10/28 01:39:18;;;;;;;96.60;25.70;;;;;;;;;;5004926;28;20204;-94
2021/10/28 01:41:44;;;;;;;95.78;25.65;;;;;;;;;;5002946;28;20716;-94
2021/10/28 01:44:11;;;;;;;97.13;26.10;;;;;;;;;;5006185;28;20208;-94
2021/10/28 01:46:37;;;;;;;96.95;25.60;;;;;;;;;;5003876;28;20253;-94
2021/10/28 01:49:06;;;;;;;100.28;28.20;;;;;;;;;;5004413;28;20202;-93
2021/10/28 01:54:58;;;;;;;95.72;27.05;;;;;;;;;;5001836;28;20235;-94
2021/10/28 02:00:25;;;;;;;97.63;25.85;;;;;;;;;;5004088;28;20227;-95
2021/10/28 02:03:00;;;;;;;92.45;24.15;;;;;;;;;;5005925;28;20272;-93
2021/10/28 02:05:39;;;;;;;105.30;26.50;;;;;;;;;;5005642;28;20203;-94
2021/10/28 02:08:07;;;;;;;96.78;24.10;;;;;;;;;;5006854;28;20603;-94
2021/10/28 02:10:38;;;;;;;96.40;24.48;;;;;;;;;;5003908;28;20242;-94
2021/10/28 02:13:38;;;;;;;91.13;23.50;;;;;;;;;;5004254;28;20705;-95
2021/10/28 02:16:21;;;;;;;99.13;25.42;;;;;;;;;;5000971;28;20223;-93
2021/10/28 02:21:59;;;;;;;93.75;24.63;;;;;;;;;;4937329;29;20235;-95
2021/10/28 02:31:02;;;;;;;98.47;25.10;;;;;;;;;;4925011;29;20215;-95
2021/10/28 02:37:00;;;;;;;97.57;26.17;;;;;;;;;;4923668;29;20218;-94
2021/10/28 02:39:53;;;;;;;;;;;;;;;;;;;;;
2021/10/28 02:42:24;;;;;;;97.25;24.25;;;;;;;;;;4921457;29;20226;-93
2021/10/28 02:45:16;;;;;;;95.57;24.42;;;;;;;;;;4927496;29;20222;-95
2021/10/28 02:50:43;;;;;;;96.10;25.05;;;;;;;;;;4946064;28;20562;-94
2021/10/28 02:56:00;;;;;;;90.78;22.63;;;;;;;;;;5003601;28;20204;-94
2021/10/28 02:58:32;;;;;;;95.22;25.05;;;;;;;;;;5005326;28;20207;-95
2021/10/28 03:00:59;;;;;;;98.85;25.38;;;;;;;;;;5009364;28;20280;-95
2021/10/28 03:03:31;;;;;;;92.15;23.52;;;;;;;;;;5008918;28;20218;-94
2021/10/28 03:05:57;;;;;;;101.07;23.90;;;;;;;;;;5013442;28;20213;-94
2021/10/28 03:08:29;;;;;;;101.30;26.30;;;;;;;;;;5011168;28;20217;-94
2021/10/28 03:10:55;;;;;;;97.53;22.88;;;;;;;;;;5003449;28;20237;-93
2021/10/28 03:13:22;;;;;;;97.22;24.42;;;;;;;;;;5006294;28;20234;-94
2021/10/28 03:15:52;;;;;;;92.93;22.20;;;;;;;;;;5003891;28;20738;-94
2021/10/28 03:26:49;;;;;;;97.75;26.35;;;;;;;;;;5004898;28;20274;-95
2021/10/28 03:29:16;;;;;;;93.05;24.10;;;;;;;;;;5002454;28;20203;-94
2021/10/28 03:31:44;;;;;;;93.60;22.88;;;;;;;;;;5002593;28;20222;-95
2021/10/28 03:34:11;;;;;;;92.30;23.60;;;;;;;;;;5007870;28;20250;-94
2021/10/28 03:36:47;;;;;;;89.25;22.45;;;;;;;;;;4990161;28;20267;-95
2021/10/28 03:39:25;;;;;;;87.93;22.23;;;;;;;;;;5006053;28;20204;-94
2021/10/28 03:57:07;;;;;;;92.03;23.45;;;;;;;;;;5060960;28;20202;-96
2021/10/28 04:21:52;;;;;;;94.18;22.75;;;;;;;;;;5168581;27;20983;-94
2021/10/28 04:29:49;;;;;;;94.35;24.05;;;;;;;;;;5164581;27;20233;-94
2021/10/28 04:32:15;;;;;;;102.65;23.73;;;;;;;;;;5164162;27;20229;-94
2021/10/28 04:34:42;;;;;;;98.70;24.17;;;;;;;;;;5167004;27;20198;-93
2021/10/28 04:37:09;;;;;;;91.35;23.92;;;;;;;;;;5167421;27;20256;-94
2021/10/28 04:39:38;;;;;;;95.32;25.70;;;;;;;;;;5165092;27;20220;-94
2021/10/28 04:42:04;;;;;;;100.07;26.50;;;;;;;;;;5166061;27;20259;-94
2021/10/28 04:44:31;;;;;;;99.97;24.92;;;;;;;;;;5166114;27;20202;-93
2021/10/28 04:46:58;;;;;;;100.82;27.13;;;;;;;;;;5165303;27;20221;-94
2021/10/28 04:49:24;;;;;;;111.15;29.27;;;;;;;;;;5166431;27;20299;-95
2021/10/28 04:51:52;;;;;;;94.38;24.73;;;;;;;;;;5167447;27;20200;-93
2021/10/28 04:54:19;;;;;;;107.55;28.05;;;;;;;;;;5165196;27;20209;-94
2021/10/28 04:56:47;;;;;;;107.65;29.80;;;;;;;;;;5166544;27;20204;-94
2021/10/28 04:59:13;;;;;;;112.95;30.73;;;;;;;;;;5167354;27;20202;-94
2021/10/28 05:01:40;;;;;;;114.45;35.28;;;;;;;;;;5155193;27;20190;-93
2021/10/28 05:04:06;;;;;;;113.07;31.60;;;;;;;;;;5152043;27;20196;-92
2021/10/28 05:06:33;;;;;;;106.03;29.48;;;;;;;;;;5153147;27;20616;-92
2021/10/28 05:09:00;;;;;;;108.20;29.85;;;;;;;;;;5150522;27;20222;-93
2021/10/28 05:11:28;;;;;;;109.03;30.35;;;;;;;;;;5150566;27;20200;-93
2021/10/28 05:13:55;;;;;;;110.30;30.35;;;;;;;;;;5150551;27;20261;-92
2021/10/28 05:16:22;;;;;;;115.22;33.70;;;;;;;;;;5151770;27;20202;-94
2021/10/28 05:18:50;;;;;;;119.60;35.58;;;;;;;;;;5150185;27;20265;-94
2021/10/28 05:21:17;;;;;;;117.43;34.05;;;;;;;;;;5151125;27;20218;-93
2021/10/28 05:23:43;;;;;;;116.65;34.65;;;;;;;;;;5150513;27;20205;-93
2021/10/28 05:26:10;;;;;;;113.00;33.33;;;;;;;;;;5152365;27;20202;-93
2021/10/28 05:28:37;;;;;;;126.00;33.22;;;;;;;;;;5150939;27;20234;-93
2021/10/28 05:31:05;;;;;;;120.93;34.30;;;;;;;;;;5149564;27;20195;-94
2021/10/28 05:33:31;;;;;;;114.75;32.80;;;;;;;;;;5145620;27;20239;-94
2021/10/28 05:35:58;;;;;;;114.15;32.95;;;;;;;;;;5151256;27;20194;-94
2021/10/28 05:38:24;;;;;;;110.30;30.27;;;;;;;;;;5151902;27;20196;-94
2021/10/28 05:40:51;;;;;;;112.55;33.72;;;;;;;;;;5141648;27;20210;-94
2021/10/28 05:43:17;;;;;;;111.97;34.15;;;;;;;;;;5151801;27;20202;-93
2021/10/28 05:45:45;;;;;;;119.97;35.83;;;;;;;;;;5151506;27;20230;-94
2021/10/28 05:48:13;;;;;;;126.97;39.47;;;;;;;;;;5150048;27;21021;-94
2021/10/28 05:50:41;;;;;;;135.85;40.17;;;;;;;;;;5150485;27;21285;-93
2021/10/28 05:53:09;;;;;;;128.38;39.85;;;;;;;;;;5149623;27;20285;-94
2021/10/28 05:55:35;;;;;;;128.40;40.50;;;;;;;;;;5147865;27;20198;-94
2021/10/28 05:58:02;;;;;;;137.25;43.00;;;;;;;;;;5150164;27;20258;-94
2021/10/28 06:00:28;;;;;;;129.57;40.13;;;;;;;;;;5151550;27;20229;-94
2021/10/28 06:02:55;;;;;;;145.38;50.83;;;;;;;;;;5150670;27;20203;-94
2021/10/28 06:05:23;;;;;;;157.82;54.28;;;;;;;;;;5145219;27;20233;-94
2021/10/28 06:07:50;;;;;;;137.43;39.78;;;;;;;;;;5151025;27;20198;-94
2021/10/28 06:10:18;;;;;;;138.98;40.67;;;;;;;;;;5149574;27;20290;-94
2021/10/28 06:12:47;;;;;;;142.27;40.37;;;;;;;;;;5150043;27;20191;-93
2021/10/28 06:15:14;;;;;;;147.50;49.28;;;;;;;;;;5150744;27;20551;-93
2021/10/28 06:17:47;;;;;;;144.77;45.28;;;;;;;;;;5148695;27;20281;-93
2021/10/28 06:20:14;;;;;;;185.15;44.55;;;;;;;;;;5150256;27;20222;-94
2021/10/28 06:22:42;;;;;;;187.52;43.92;;;;;;;;;;5150353;27;20216;-94
2021/10/28 06:25:09;;;;;;;209.82;40.40;;;;;;;;;;5148074;27;20191;-93
2021/10/28 06:27:35;;;;;;;297.25;92.90;;;;;;;;;;5149029;27;20238;-95
2021/10/28 06:30:02;;;;;;;193.00;51.95;;;;;;;;;;5148369;27;20220;-93
2021/10/28 06:32:28;;;;;;;204.03;42.20;;;;;;;;;;5149377;27;20195;-93
2021/10/28 06:34:55;;;;;;;140.65;37.80;;;;;;;;;;5149923;27;20462;-94
2021/10/28 06:37:21;;;;;;;128.23;38.17;;;;;;;;;;5150838;27;20201;-94
2021/10/28 06:39:49;;;;;;;149.15;38.80;;;;;;;;;;5149198;27;20206;-94
2021/10/28 06:42:16;;;;;;;154.23;43.87;;;;;;;;;;5150234;27;20231;-93
2021/10/28 06:44:43;;;;;;;132.63;37.00;;;;;;;;;;5148861;27;20463;-94
2021/10/28 06:47:10;;;;;;;124.32;37.28;;;;;;;;;;5149786;27;20445;-94
2021/10/28 06:49:39;;;;;;;143.63;41.17;;;;;;;;;;5145764;27;20247;-93
2021/10/28 06:52:09;;;;;;;136.20;38.37;;;;;;;;;;5148237;27;20441;-94
2021/10/28 06:54:36;;;;;;;152.70;37.33;;;;;;;;;;5149163;27;20463;-93
2021/10/28 06:57:18;;;;;;;142.80;38.60;;;;;;;;;;5150858;27;20437;-92
2021/10/28 07:02:35;;;;;;;148.70;42.37;;;;;;;;;;5151373;27;20449;-94
2021/10/28 07:05:03;;;;;;;148.63;43.20;;;;;;;;;;5144964;27;20458;-94
2021/10/28 07:07:31;;;;;;;195.90;57.47;;;;;;;;;;5148764;27;20438;-94
2021/10/28 07:10:02;;;;;;;172.80;52.65;;;;;;;;;;5148258;27;20485;-94
2021/10/28 07:12:47;;;;;;;131.70;40.77;;;;;;;;;;5149699;27;20208;-93
2021/10/28 07:15:18;;;;;;;138.43;42.13;;;;;;;;;;5147978;27;20435;-93
2021/10/28 07:18:06;;;;;;;144.10;42.63;;;;;;;;;;5147242;27;20445;-94
2021/10/28 07:23:43;;;;;;;138.63;41.53;;;;;;;;;;5149006;27;20435;-95
2021/10/28 07:29:10;;;;;;;144.10;46.07;;;;;;;;;;5149509;27;20455;-94
2021/10/28 07:34:26;;;;;;;144.13;45.77;;;;;;;;;;5149224;27;20465;-93
2021/10/28 07:54:51;;;;;;;142.50;42.60;;;;;;;;;;5147276;27;20470;-94
2021/10/28 08:16:13;;;;;;;146.40;51.53;;;;;;;;;;5147339;27;20433;-95
2021/10/28 08:18:56;;;;;;;145.17;49.80;;;;;;;;;;5147726;27;20445;-93
2021/10/28 08:24:15;;;;;;;148.00;52.50;;;;;;;;;;5149071;27;20474;-96
2021/10/28 08:29:31;;;;;;;139.60;48.30;;;;;;;;;;5151114;27;20444;-96
2021/10/28 08:34:27;;;;;;;113.80;36.60;;;;;;;;;;5107377;22;20922;-96
2021/10/28 08:36:54;;;;;;;118.13;34.60;;;;;;;;;;5098825;28;20186;-96
2021/10/28 08:39:21;;;;;;;118.67;38.17;;;;;;;;;;5100869;28;20445;-96
2021/10/28 08:44:50;;;;;;;114.93;36.13;;;;;;;;;;5707317;22;20516;-95
2021/10/28 08:49:57;;;;;;;110.43;34.20;;;;;;;;;;5167622;22;20492;-95
2021/10/28 08:52:41;;;;;;;114.90;34.13;;;;;;;;;;5507878;22;20537;-95
2021/10/28 08:55:33;;;;;;;104.17;31.70;;;;;;;;;;5118054;28;20447;-96
2021/10/28 09:25:36;;;;;;;90.57;26.97;;;;;;;;;;5109767;28;20449;-96
2021/10/28 09:28:10;;;;;;;91.83;27.50;;;;;;;;;;5110275;28;20459;-95
2021/10/28 09:30:46;;;;;;;97.43;26.07;;;;;;;;;;5113436;28;20485;-95
2021/10/28 09:33:19;;;;;;;91.23;27.50;;;;;;;;;;5110461;28;20465;-95
2021/10/28 09:36:09;;;;;;;91.87;27.53;;;;;;;;;;5110932;28;20520;-96
2021/10/28 09:44:39;;;;;;;92.27;26.70;;;;;;;;;;5110229;28;20436;-94
2021/10/28 09:47:19;;;;;;;91.57;27.23;;;;;;;;;;5110732;28;20447;-96
2021/10/28 09:50:03;;;;;;;92.73;28.30;;;;;;;;;;5111082;28;20460;-94
2021/10/28 09:52:33;;;;;;;91.57;26.73;;;;;;;;;;5111387;28;20489;-96
2021/10/28 09:57:55;;;;;;;90.60;26.67;;;;;;;;;;5109552;28;20458;-95
2021/10/28 10:00:33;;;;;;;95.63;28.20;;;;;;;;;;5111115;28;20444;-95
2021/10/28 10:03:07;;;;;;;98.17;28.20;;;;;;;;;;5111672;28;20499;-93
2021/10/28 10:05:34;;;;;;;92.20;27.87;;;;;;;;;;5111283;28;20458;-95
2021/10/28 10:08:03;;;;;;;95.77;26.60;;;;;;;;;;5111262;28;20439;-95
2021/10/28 10:10:31;;;;;;;91.17;27.90;;;;;;;;;;5110368;28;20521;-96
2021/10/28 10:12:58;;;;;;;99.10;27.97;;;;;;;;;;5110609;28;20470;-95
2021/10/28 10:15:25;;;;;;;88.47;26.60;;;;;;;;;;5111141;28;20498;-96
2021/10/28 10:17:52;;;;;;;90.97;27.00;;;;;;;;;;5112059;28;20441;-96
2021/10/28 10:20:20;;;;;;;93.03;26.63;;;;;;;;;;5111152;28;20455;-93
2021/10/28 10:22:53;;;;;;;94.37;27.33;;;;;;;;;;5114309;28;20461;-96
2021/10/28 10:25:48;;;;;;;91.93;27.87;;;;;;;;;;5110397;28;20439;-92
2021/10/28 11:23:34;;;;;;;85.27;26.13;;;;;;;;;;5242039;23;20495;-94
2021/10/28 12:16:47;;;;;;;77.30;20.77;;;;;;;;;;5228141;23;20497;-96
2021/10/28 12:28:10;;;;;;;75.27;20.17;;;;;;;;;;5046303;23;20568;-96
2021/10/28 12:45:30;;;;;;;76.80;19.77;;;;;;;;;;5007397;28;20992;-95
2021/10/28 12:48:24;;;;;;;76.03;19.73;;;;;;;;;;5010358;28;20517;-96
2021/10/28 12:51:10;;;;;;;74.07;19.77;;;;;;;;;;5009344;28;20519;-96
2021/10/28 12:54:02;;;;;;;75.87;20.03;;;;;;;;;;5112240;23;20498;-96
2021/10/28 13:50:14;;;;;;;77.83;21.80;;;;;;;;;;5036904;28;20985;-96
2021/10/28 16:37:18;;;;;;;90.43;26.30;;;;;;;;;;5173747;23;20473;-96
2021/10/28 19:05:57;;;;;;;117.20;37.83;;;;;;;;;;4949352;23;20492;-96
2021/10/28 19:11:07;;;;;;;101.90;32.70;;;;;;;;;;5206888;23;20491;-96
2021/10/28 21:24:14;;;;;;;98.60;27.83;;;;;;;;;;5815170;23;20341;-96
